Time;durP1;ratioP1;P1;durP2;ratioP2;P2;SDS_P1;SDS_P2;PMS_P1;PMS_P2;Temp;Humidity;BMP_temperature;BMP_pressure;BME280_temperature;BME280_humidity;BME280_pressure;Samples;Min_cycle;Max_cycle;Signal;HPM_P1;HPM_P2
2023/10/20 00:00:20;;;;;;;98.30;42.20;;;;;;;8.38;100.00;98293.20;110511;1275;22299;-80
2023/10/20 00:03:11;;;;;;;90.60;38.80;;;;;;;8.41;100.00;98289.68;110536;1275;22207;-81
2023/10/20 00:05:42;;;;;;;99.10;41.30;;;;;;;8.41;100.00;98285.59;110462;1275;22165;-81
2023/10/20 00:08:13;;;;;;;90.20;39.50;;;;;;;8.41;100.00;98292.20;110489;1275;23027;-80
2023/10/20 00:10:44;;;;;;;87.20;39.80;;;;;;;8.42;100.00;98292.55;110484;1275;23075;-80
2023/10/20 00:13:14;;;;;;;95.80;42.90;;;;;;;8.42;100.00;98282.23;110541;1272;22181;-80
2023/10/20 00:15:47;;;;;;;94.20;42.90;;;;;;;8.43;100.00;98286.95;110555;1275;22180;-80
2023/10/20 00:18:18;;;;;;;92.60;39.60;;;;;;;8.44;100.00;98289.57;110512;1275;22199;-81
2023/10/20 00:20:49;;;;;;;89.30;40.60;;;;;;;8.45;100.00;98279.40;110523;1275;22204;-80
2023/10/20 00:23:20;;;;;;;87.30;38.20;;;;;;;8.47;100.00;98274.73;110552;1275;22347;-80
2023/10/20 00:25:51;;;;;;;82.30;37.30;;;;;;;8.47;100.00;98263.11;110466;1275;22391;-79
2023/10/20 00:28:22;;;;;;;92.90;41.00;;;;;;;8.47;100.00;98245.97;110416;1275;22322;-79
2023/10/20 00:30:53;;;;;;;83.80;40.60;;;;;;;8.47;100.00;98240.11;110369;1275;22137;-79
2023/10/20 00:33:24;;;;;;;92.30;40.80;;;;;;;8.44;100.00;98234.00;110421;1268;22207;-79
2023/10/20 00:35:58;;;;;;;89.60;38.90;;;;;;;8.43;100.00;98231.38;110449;1275;22225;-79
2023/10/20 00:38:31;;;;;;;88.00;39.30;;;;;;;8.40;100.00;98225.64;110431;1275;22228;-79
2023/10/20 00:41:03;;;;;;;89.70;38.30;;;;;;;8.37;100.00;98220.79;110412;1275;22158;-79
2023/10/20 00:43:37;;;;;;;88.80;40.60;;;;;;;8.36;100.00;98221.01;110416;1275;22187;-79
2023/10/20 00:46:10;;;;;;;89.20;38.50;;;;;;;8.36;100.00;98223.64;110430;1275;22276;-79
2023/10/20 00:48:41;;;;;;;83.10;38.20;;;;;;;8.36;100.00;98218.48;110424;1268;22325;-78
2023/10/20 00:51:12;;;;;;;77.00;35.80;;;;;;;8.37;100.00;98212.20;110419;1272;22199;-81
2023/10/20 00:53:43;;;;;;;85.20;37.50;;;;;;;8.37;100.00;98210.18;110411;1275;22459;-81
2023/10/20 00:56:17;;;;;;;80.00;38.50;;;;;;;8.36;100.00;98212.67;110426;1272;22226;-81
2023/10/20 00:58:48;;;;;;;83.70;35.70;;;;;;;8.36;100.00;98217.41;110403;1275;22232;-80
2023/10/20 01:01:19;;;;;;;82.90;38.70;;;;;;;8.34;100.00;98226.88;110434;1275;22264;-81
2023/10/20 01:03:51;;;;;;;81.20;37.40;;;;;;;8.31;100.00;98237.95;110446;1275;22248;-80
2023/10/20 01:06:22;;;;;;;86.30;39.30;;;;;;;8.31;100.00;98243.21;110407;1275;22350;-80
2023/10/20 01:08:58;;;;;;;89.10;38.50;;;;;;;8.32;100.00;98253.92;110420;1275;22199;-80
2023/10/20 01:11:29;;;;;;;83.90;37.60;;;;;;;8.29;100.00;98253.52;110387;1275;23084;-80
2023/10/20 01:14:01;;;;;;;81.10;37.60;;;;;;;8.27;100.00;98249.65;110463;1275;22181;-80
2023/10/20 01:16:32;;;;;;;91.50;40.50;;;;;;;8.26;100.00;98245.66;110423;1275;22182;-80
2023/10/20 01:19:03;;;;;;;84.00;38.10;;;;;;;8.26;100.00;98231.45;110439;1275;22889;-79
2023/10/20 01:21:34;;;;;;;86.80;36.70;;;;;;;8.26;100.00;98226.20;110436;1269;23525;-80
2023/10/20 01:24:05;;;;;;;80.00;37.30;;;;;;;8.27;100.00;98209.30;110467;1275;22289;-80
2023/10/20 01:26:36;;;;;;;76.00;34.80;;;;;;;8.30;100.00;98194.55;110462;1275;22237;-80
2023/10/20 01:29:09;;;;;;;82.90;36.30;;;;;;;8.30;100.00;98192.39;110490;1272;22130;-79
2023/10/20 01:31:41;;;;;;;83.70;36.20;;;;;;;8.30;100.00;98198.09;110436;1275;22148;-79
2023/10/20 01:34:12;;;;;;;79.80;36.60;;;;;;;8.30;100.00;98193.78;110175;1275;304636;-80
2023/10/20 01:36:42;;;;;;;91.30;36.00;;;;;;;8.28;100.00;98196.02;110434;1275;22983;-80
2023/10/20 01:39:15;;;;;;;83.00;35.60;;;;;;;8.28;100.00;98199.80;110444;1275;22155;-79
2023/10/20 01:41:46;;;;;;;76.90;32.30;;;;;;;8.28;100.00;98205.77;110443;1275;22200;-79
2023/10/20 01:44:17;;;;;;;72.30;33.60;;;;;;;8.27;100.00;98212.80;110468;1275;22886;-80
2023/10/20 01:46:49;;;;;;;75.30;33.10;;;;;;;8.25;100.00;98204.73;110475;1272;22133;-79
2023/10/20 01:49:20;;;;;;;75.40;35.20;;;;;;;8.23;100.00;98202.98;110477;1275;22328;-79
2023/10/20 01:51:51;;;;;;;73.50;34.50;;;;;;;8.23;100.00;98207.34;110411;1275;22298;-79
2023/10/20 01:54:22;;;;;;;77.20;36.40;;;;;;;8.25;100.00;98205.31;110451;1275;23163;-79
2023/10/20 01:56:52;;;;;;;80.40;34.70;;;;;;;8.24;100.00;98195.15;110470;1275;22167;-79
2023/10/20 01:59:23;;;;;;;77.80;35.70;;;;;;;8.25;100.00;98188.54;110481;1270;22339;-79
2023/10/20 02:01:54;;;;;;;76.70;35.20;;;;;;;8.20;100.00;98191.83;110475;1275;22449;-80
2023/10/20 02:04:25;;;;;;;74.20;34.20;;;;;;;8.19;100.00;98200.77;110450;1275;22335;-80
2023/10/20 02:06:55;;;;;;;80.10;34.30;;;;;;;8.18;100.00;98204.83;110474;1275;22207;-79
2023/10/20 02:09:26;;;;;;;84.20;35.20;;;;;;;8.19;100.00;98200.21;110484;1275;22190;-80
2023/10/20 02:11:58;;;;;;;74.40;33.10;;;;;;;8.21;100.00;98188.05;110439;1275;22187;-79
2023/10/20 02:14:29;;;;;;;70.80;33.10;;;;;;;8.23;100.00;98186.47;110483;1269;23455;-79
2023/10/20 02:17:00;;;;;;;75.10;32.60;;;;;;;8.24;100.00;98188.13;110510;1275;22132;-79
2023/10/20 02:19:31;;;;;;;73.90;32.70;;;;;;;8.23;100.00;98187.98;110489;1275;23014;-79
2023/10/20 02:22:02;;;;;;;74.00;33.80;;;;;;;8.22;100.00;98187.42;110443;1275;23362;-79
2023/10/20 02:24:33;;;;;;;72.00;32.60;;;;;;;8.22;100.00;98178.42;110470;1275;22210;-79
2023/10/20 02:27:03;;;;;;;76.50;35.10;;;;;;;8.23;100.00;98172.30;110465;1275;22283;-79
2023/10/20 02:29:34;;;;;;;74.90;33.40;;;;;;;8.25;100.00;98165.59;110491;1275;22862;-79
2023/10/20 02:32:05;;;;;;;75.40;32.20;;;;;;;8.25;100.00;98157.77;110432;1275;22321;-79
2023/10/20 02:34:36;;;;;;;78.60;34.60;;;;;;;8.25;100.00;98154.78;110495;1268;22263;-79
2023/10/20 02:37:09;;;;;;;73.20;32.70;;;;;;;8.26;100.00;98146.39;110465;1275;22274;-79
2023/10/20 02:39:39;;;;;;;76.10;34.30;;;;;;;8.26;100.00;98145.84;110506;1275;23111;-79
2023/10/20 02:42:11;;;;;;;73.70;33.80;;;;;;;8.26;100.00;98142.91;110501;1269;22372;-79
2023/10/20 02:44:42;;;;;;;81.70;36.40;;;;;;;8.24;100.00;98140.05;110456;1275;22257;-82
2023/10/20 02:47:12;;;;;;;72.10;34.90;;;;;;;8.26;100.00;98141.69;110476;1275;23221;-82
2023/10/20 02:49:43;;;;;;;73.90;33.50;;;;;;;8.28;100.00;98143.10;110453;1275;23171;-81
2023/10/20 02:52:14;;;;;;;70.20;31.50;;;;;;;8.28;100.00;98150.02;110269;1269;22663;-81
2023/10/20 02:54:46;;;;;;;74.60;33.40;;;;;;;8.25;100.00;98152.31;109540;1275;22921;-85
2023/10/20 02:57:16;;;;;;;77.10;31.60;;;;;;;8.24;100.00;98152.75;110346;1275;22623;-83
2023/10/20 02:59:48;;;;;;;72.90;34.90;;;;;;;8.25;100.00;98145.79;109197;1272;24124;-83
2023/10/20 03:02:22;;;;;;;70.60;33.50;;;;;;;8.24;100.00;98144.81;108342;1271;22543;-80
2023/10/20 03:04:55;;;;;;;76.50;34.10;;;;;;;8.25;100.00;98145.98;110433;1275;22244;-80
2023/10/20 03:07:27;;;;;;;71.70;34.20;;;;;;;8.26;100.00;98145.73;110428;1275;22208;-80
2023/10/20 03:09:58;;;;;;;70.90;31.60;;;;;;;8.28;100.00;98147.20;110422;1275;22197;-81
2023/10/20 03:12:29;;;;;;;72.80;33.40;;;;;;;8.28;100.00;98150.23;110396;1273;22212;-80
2023/10/20 03:15:00;;;;;;;66.10;31.00;;;;;;;8.27;100.00;98151.04;110438;1275;22161;-80
2023/10/20 03:17:30;;;;;;;67.60;31.50;;;;;;;8.28;100.00;98147.80;110338;1274;22228;-80
2023/10/20 03:20:01;;;;;;;61.30;29.30;;;;;;;8.28;100.00;98140.22;110424;1275;22235;-81
2023/10/20 03:22:32;;;;;;;70.00;31.10;;;;;;;8.27;100.00;98136.17;110444;1275;22366;-80
2023/10/20 03:25:03;;;;;;;68.60;31.20;;;;;;;8.27;100.00;98128.05;110459;1275;22222;-80
2023/10/20 03:27:35;;;;;;;71.60;32.10;;;;;;;8.27;100.00;98114.75;110462;1275;22962;-81
2023/10/20 03:30:08;;;;;;;66.50;29.70;;;;;;;8.28;100.00;98102.66;110450;1275;22766;-84
2023/10/20 03:32:39;;;;;;;70.20;32.40;;;;;;;8.28;100.00;98093.16;110368;1269;22142;-81
2023/10/20 03:35:12;;;;;;;63.60;30.00;;;;;;;8.28;100.00;98095.39;110458;1275;22893;-81
2023/10/20 03:37:43;;;;;;;70.30;32.70;;;;;;;8.29;100.00;98118.94;110403;1275;22208;-81
2023/10/20 03:40:16;;;;;;;65.40;30.30;;;;;;;8.29;100.00;98143.70;110408;1275;22198;-80
2023/10/20 03:43:05;;;;;;;72.10;33.00;;;;;;;8.28;100.00;98148.36;110418;1275;22920;-81
2023/10/20 03:45:41;;;;;;;68.90;29.30;;;;;;;8.30;100.00;98152.70;110430;1275;22860;-81
2023/10/20 03:48:14;;;;;;;64.70;30.60;;;;;;;8.32;100.00;98154.61;110430;1272;22299;-80
2023/10/20 03:50:46;;;;;;;70.70;30.80;;;;;;;8.32;100.00;98149.00;110456;1275;22381;-80
2023/10/20 03:53:21;;;;;;;70.50;31.40;;;;;;;8.34;100.00;98142.40;110465;1264;22244;-79
2023/10/20 03:56:01;;;;;;;66.40;31.80;;;;;;;8.36;100.00;98134.16;110476;1275;22929;-80
2023/10/20 03:58:32;;;;;;;65.60;31.50;;;;;;;8.38;100.00;98130.32;110426;1272;22521;-80
2023/10/20 04:01:06;;;;;;;65.90;32.90;;;;;;;8.38;100.00;98130.45;110428;1268;22248;-81
2023/10/20 04:03:37;;;;;;;63.30;29.60;;;;;;;8.37;100.00;98121.67;110448;1275;23465;-82
2023/10/20 04:06:09;;;;;;;66.20;30.90;;;;;;;8.38;100.00;98117.67;110426;1275;22278;-79
2023/10/20 04:08:40;;;;;;;75.20;32.10;;;;;;;8.37;100.00;98117.62;110396;1275;22320;-77
2023/10/20 04:11:12;;;;;;;69.20;30.40;;;;;;;8.38;100.00;98113.16;110373;1275;22951;-78
2023/10/20 04:13:43;;;;;;;63.30;28.80;;;;;;;8.40;100.00;98114.16;110426;1275;23423;-79
2023/10/20 04:16:17;;;;;;;65.70;29.00;;;;;;;8.41;100.00;98120.59;110396;1274;22301;-78
2023/10/20 04:18:48;;;;;;;63.00;30.20;;;;;;;8.41;100.00;98122.75;110492;1269;22705;-77
2023/10/20 04:21:19;;;;;;;67.10;28.70;;;;;;;8.40;100.00;98122.77;110448;1267;22379;-74
2023/10/20 04:23:49;;;;;;;64.30;28.90;;;;;;;8.37;100.00;98120.45;110396;1270;22161;-76
2023/10/20 04:26:23;;;;;;;63.70;30.00;;;;;;;8.38;100.00;98119.38;110412;1269;22165;-79
2023/10/20 04:29:08;;;;;;;63.80;30.40;;;;;;;8.39;100.00;98116.14;110582;1275;22177;-79
2023/10/20 04:46:55;;;;;;;67.80;31.30;;;;;;;8.38;100.00;98108.16;110590;1275;22935;-79
2023/10/20 04:51:28;;;;;;;58.40;28.20;;;;;;;8.37;100.00;98110.79;110594;1275;22377;-79
2023/10/20 04:54:07;;;;;;;71.70;31.30;;;;;;;8.36;100.00;98109.64;110607;1275;22206;-79
2023/10/20 04:56:39;;;;;;;61.20;26.80;;;;;;;8.35;100.00;98107.53;110609;1271;22158;-79
2023/10/20 04:59:22;;;;;;;64.10;29.50;;;;;;;8.35;100.00;98099.39;110563;1275;22535;-78
2023/10/20 05:01:58;;;;;;;59.50;27.10;;;;;;;8.36;100.00;98095.64;110529;1275;22178;-79
2023/10/20 05:04:36;;;;;;;64.10;28.90;;;;;;;8.33;100.00;98096.32;110599;1269;22158;-79
2023/10/20 05:07:08;;;;;;;63.80;28.40;;;;;;;8.33;100.00;98099.20;110585;1275;22193;-79
2023/10/20 05:09:43;;;;;;;69.90;31.80;;;;;;;8.35;100.00;98092.01;110614;1275;22169;-79
2023/10/20 05:12:14;;;;;;;68.50;30.90;;;;;;;8.35;100.00;98093.43;110592;1275;22866;-78
2023/10/20 05:14:46;;;;;;;64.50;27.20;;;;;;;8.32;100.00;98086.61;110438;1275;22182;-77
2023/10/20 05:17:19;;;;;;;64.80;28.70;;;;;;;8.30;100.00;98084.15;110413;1275;22933;-78
2023/10/20 05:19:51;;;;;;;62.90;28.10;;;;;;;8.30;100.00;98083.14;110431;1272;22972;-78
2023/10/20 05:22:22;;;;;;;61.50;28.40;;;;;;;8.31;100.00;98078.69;110374;1275;23188;-77
2023/10/20 05:24:54;;;;;;;66.40;29.10;;;;;;;8.34;100.00;98084.23;110399;1275;22272;-77
2023/10/20 05:27:25;;;;;;;63.20;28.60;;;;;;;8.34;100.00;98085.40;110424;1269;22330;-77
2023/10/20 05:29:56;;;;;;;60.90;27.80;;;;;;;8.32;100.00;98082.64;110339;1275;22147;-77
2023/10/20 05:32:29;;;;;;;56.40;27.20;;;;;;;8.33;100.00;98077.17;110371;1275;22321;-78
2023/10/20 05:35:01;;;;;;;56.90;27.30;;;;;;;8.34;100.00;98075.50;110402;1275;22369;-77
2023/10/20 05:37:32;;;;;;;54.50;25.60;;;;;;;8.34;100.00;98072.86;110410;1275;22309;-77
2023/10/20 05:40:04;;;;;;;57.40;25.60;;;;;;;8.30;100.00;98081.73;110438;1275;22160;-77
2023/10/20 05:42:35;;;;;;;58.20;26.90;;;;;;;8.27;100.00;98089.53;110389;1275;22237;-78
2023/10/20 05:45:10;;;;;;;54.30;25.10;;;;;;;8.27;100.00;98077.90;110407;1274;22178;-77
2023/10/20 05:47:41;;;;;;;55.60;25.10;;;;;;;8.27;100.00;98076.54;110437;1270;22214;-77
2023/10/20 05:50:13;;;;;;;64.00;27.90;;;;;;;8.29;100.00;98082.95;110446;1275;22145;-77
2023/10/20 05:52:44;;;;;;;59.40;25.70;;;;;;;8.29;100.00;98078.15;110418;1275;22308;-78
2023/10/20 05:55:15;;;;;;;59.20;26.60;;;;;;;8.29;100.00;98085.38;110425;1264;22160;-77
2023/10/20 05:57:46;;;;;;;61.20;26.20;;;;;;;8.29;100.00;98090.89;110405;1275;22225;-77
2023/10/20 06:00:17;;;;;;;61.10;28.70;;;;;;;8.30;100.00;98082.04;110360;1275;22178;-77
2023/10/20 06:02:48;;;;;;;64.00;28.80;;;;;;;8.32;100.00;98074.49;110400;1275;22202;-77
2023/10/20 06:05:31;;;;;;;61.50;27.20;;;;;;;8.34;100.00;98077.20;110417;1275;22210;-77
2023/10/20 06:08:02;;;;;;;64.40;28.30;;;;;;;8.36;100.00;98070.36;110422;1275;22187;-77
2023/10/20 06:10:33;;;;;;;64.40;27.60;;;;;;;8.38;100.00;98060.70;110396;1275;22219;-77
2023/10/20 06:13:04;;;;;;;60.10;26.80;;;;;;;8.37;100.00;98058.08;110417;1264;22171;-77
2023/10/20 06:15:36;;;;;;;58.40;26.60;;;;;;;8.37;100.00;98056.36;110450;1275;22485;-77
2023/10/20 06:18:07;;;;;;;56.60;25.70;;;;;;;8.35;100.00;98049.80;110425;1272;22200;-78
2023/10/20 06:20:42;;;;;;;59.10;26.90;;;;;;;8.36;100.00;98048.12;110372;1275;22847;-77
2023/10/20 06:23:13;;;;;;;62.60;27.00;;;;;;;8.37;100.00;98051.41;110408;1263;22234;-78
2023/10/20 06:25:44;;;;;;;58.20;26.30;;;;;;;8.36;100.00;98056.07;110397;1275;22117;-77
2023/10/20 06:28:14;;;;;;;62.50;26.90;;;;;;;8.35;100.00;98056.56;110433;1275;22209;-77
2023/10/20 06:30:47;;;;;;;60.60;25.50;;;;;;;8.35;100.00;98054.55;110401;1275;22145;-77
2023/10/20 06:33:18;;;;;;;59.90;25.20;;;;;;;8.36;100.00;98051.97;110408;1275;22192;-77
2023/10/20 06:35:59;;;;;;;65.10;26.40;;;;;;;8.36;100.00;98051.05;110410;1275;22210;-77
2023/10/20 06:38:34;;;;;;;60.30;25.60;;;;;;;8.37;100.00;98051.20;110567;1275;22167;-77
2023/10/20 06:41:06;;;;;;;65.90;25.90;;;;;;;8.39;100.00;98051.79;110647;1275;22200;-78
2023/10/20 06:43:37;;;;;;;60.10;25.20;;;;;;;8.41;100.00;98053.19;110494;1262;22354;-75
2023/10/20 06:46:08;;;;;;;58.90;26.10;;;;;;;8.43;100.00;98057.67;110400;1268;22309;-76
2023/10/20 06:48:38;;;;;;;61.40;26.30;;;;;;;8.45;100.00;98053.16;110412;1272;22191;-76
2023/10/20 06:51:09;;;;;;;54.90;24.90;;;;;;;8.47;100.00;98057.04;110390;1275;22180;-75
2023/10/20 06:53:40;;;;;;;65.80;27.90;;;;;;;8.49;100.00;98058.23;110453;1271;22959;-76
2023/10/20 06:56:10;;;;;;;61.90;27.50;;;;;;;8.51;100.00;98054.77;110381;1275;22145;-76
2023/10/20 06:58:41;;;;;;;65.70;26.70;;;;;;;8.57;100.00;98054.89;110437;1275;22201;-75
2023/10/20 07:01:12;;;;;;;60.30;26.10;;;;;;;8.59;100.00;98046.83;110431;1268;22559;-76
2023/10/20 07:03:43;;;;;;;59.70;27.40;;;;;;;8.61;100.00;98040.44;110392;1275;22271;-76
2023/10/20 07:06:15;;;;;;;66.80;28.20;;;;;;;8.62;100.00;98034.02;110395;1275;22188;-76
2023/10/20 07:08:48;;;;;;;68.80;28.00;;;;;;;8.62;100.00;98027.13;110399;1275;22216;-76
2023/10/20 07:11:19;;;;;;;64.40;27.20;;;;;;;8.65;100.00;98019.69;110431;1275;22293;-76
2023/10/20 07:13:49;;;;;;;67.00;27.20;;;;;;;8.67;100.00;98010.30;110433;1275;22137;-76
2023/10/20 07:16:20;;;;;;;72.10;30.30;;;;;;;8.67;100.00;97996.04;110410;1275;22277;-76
2023/10/20 07:18:54;;;;;;;67.70;29.00;;;;;;;8.70;100.00;97986.86;110487;1272;22263;-75
2023/10/20 07:21:25;;;;;;;73.90;29.10;;;;;;;8.72;100.00;97981.68;110420;1269;22336;-76
2023/10/20 07:23:56;;;;;;;69.90;27.40;;;;;;;8.74;100.00;97986.15;110440;1275;23019;-75
2023/10/20 07:26:26;;;;;;;69.20;27.90;;;;;;;8.78;100.00;97990.57;110437;1268;22986;-76
2023/10/20 07:28:57;;;;;;;67.80;27.80;;;;;;;8.78;100.00;97986.63;110468;1269;23181;-76
2023/10/20 07:31:28;;;;;;;67.50;28.40;;;;;;;8.81;100.00;97987.31;110423;1275;22811;-76
2023/10/20 07:34:02;;;;;;;67.60;28.10;;;;;;;8.82;100.00;97995.08;110431;1275;22211;-75
2023/10/20 07:36:32;;;;;;;69.10;30.50;;;;;;;8.81;100.00;97986.27;110473;1275;22237;-75
2023/10/20 07:39:04;;;;;;;70.10;30.60;;;;;;;8.84;100.00;97981.82;110426;1275;22259;-75
2023/10/20 07:41:35;;;;;;;70.20;28.60;;;;;;;8.86;100.00;97983.92;110422;1275;22194;-76
2023/10/20 07:44:06;;;;;;;78.20;32.80;;;;;;;8.88;100.00;97976.86;110389;1272;22870;-75
2023/10/20 07:46:37;;;;;;;75.60;30.40;;;;;;;8.90;100.00;97979.11;110436;1275;22273;-76
2023/10/20 07:49:08;;;;;;;83.40;35.00;;;;;;;8.91;100.00;97980.20;110413;1272;22251;-76
2023/10/20 07:51:39;;;;;;;77.50;35.80;;;;;;;8.93;100.00;97982.08;110397;1275;22216;-75
2023/10/20 07:54:11;;;;;;;83.40;37.90;;;;;;;8.96;100.00;97985.02;110420;1275;22170;-76
2023/10/20 07:56:42;;;;;;;82.00;34.40;;;;;;;8.99;100.00;97982.41;110401;1269;22202;-75
2023/10/20 07:59:12;;;;;;;79.10;32.60;;;;;;;9.00;100.00;97971.27;110431;1275;22337;-75
2023/10/20 08:01:43;;;;;;;78.20;32.10;;;;;;;9.01;100.00;97969.64;110408;1275;22157;-76
2023/10/20 08:04:14;;;;;;;78.40;33.00;;;;;;;9.01;100.00;97963.98;110424;1275;22283;-76
2023/10/20 08:06:44;;;;;;;74.60;32.00;;;;;;;9.02;100.00;97954.30;110424;1275;22566;-76
2023/10/20 08:09:15;;;;;;;82.00;34.70;;;;;;;9.04;100.00;97953.52;110431;1275;22195;-76
2023/10/20 08:11:46;;;;;;;80.10;32.30;;;;;;;9.07;100.00;97951.00;110433;1275;22238;-75
2023/10/20 08:14:16;;;;;;;78.90;33.50;;;;;;;9.09;100.00;97943.74;110436;1275;22167;-75
2023/10/20 08:16:47;;;;;;;79.80;34.10;;;;;;;9.10;100.00;97942.52;110397;1272;23098;-76
2023/10/20 08:19:18;;;;;;;84.70;35.30;;;;;;;9.11;100.00;97932.38;110435;1268;22135;-75
2023/10/20 08:21:49;;;;;;;84.10;36.20;;;;;;;9.14;100.00;97931.23;110402;1275;22371;-76
2023/10/20 08:24:19;;;;;;;79.50;38.20;;;;;;;9.16;100.00;97927.05;110424;1275;22204;-76
2023/10/20 08:26:51;;;;;;;87.70;37.80;;;;;;;9.19;100.00;97922.50;110448;1272;22124;-76
2023/10/20 08:29:23;;;;;;;70.80;31.70;;;;;;;9.21;100.00;97919.95;110446;1267;22208;-76
2023/10/20 08:31:53;;;;;;;72.70;33.50;;;;;;;9.23;100.00;97919.93;110391;1275;23070;-76
2023/10/20 08:34:24;;;;;;;79.40;33.60;;;;;;;9.25;100.00;97915.40;110461;1275;23385;-76
2023/10/20 08:36:55;;;;;;;76.10;31.50;;;;;;;9.28;100.00;97918.05;110452;1275;22504;-75
2023/10/20 08:39:27;;;;;;;75.10;32.00;;;;;;;9.28;100.00;97918.14;110440;1275;22407;-77
2023/10/20 08:41:59;;;;;;;81.70;34.90;;;;;;;9.29;100.00;97914.99;110394;1275;22167;-77
2023/10/20 08:44:30;;;;;;;80.10;32.10;;;;;;;9.30;100.00;97900.10;110424;1275;22714;-77
2023/10/20 08:47:02;;;;;;;70.00;31.40;;;;;;;9.31;100.00;97891.69;110477;1275;23037;-77
2023/10/20 08:49:33;;;;;;;73.40;30.70;;;;;;;9.30;100.00;97887.39;110425;1275;22167;-77
2023/10/20 08:52:08;;;;;;;89.00;37.90;;;;;;;9.29;100.00;97888.61;110377;1275;22218;-77
2023/10/20 08:54:39;;;;;;;94.40;42.10;;;;;;;9.29;100.00;97882.28;110445;1264;22164;-77
2023/10/20 08:57:10;;;;;;;94.30;46.90;;;;;;;9.30;100.00;97874.03;110426;1275;22212;-77
2023/10/20 08:59:50;;;;;;;97.00;45.70;;;;;;;9.32;100.00;97868.13;110488;1275;22207;-77
2023/10/20 09:02:19;;;;;;;;;;;;;;;9.34;100.00;97862.68;110442;1266;23313;-77
2023/10/20 09:04:53;;;;;;;71.20;28.90;;;;;;;9.33;100.00;97864.55;110419;1275;22870;-77
2023/10/20 09:07:25;;;;;;;88.40;40.00;;;;;;;9.34;100.00;97868.40;110439;1275;22158;-77
2023/10/20 09:09:56;;;;;;;84.80;36.50;;;;;;;9.34;100.00;97867.80;110412;1275;22374;-77
2023/10/20 09:12:29;;;;;;;97.30;43.80;;;;;;;9.34;100.00;97860.31;110468;1275;22322;-77
2023/10/20 09:15:00;;;;;;;88.00;39.30;;;;;;;9.36;100.00;97851.41;110431;1275;22375;-77
2023/10/20 09:17:33;;;;;;;87.10;35.70;;;;;;;9.36;100.00;97841.99;110431;1275;22136;-77
2023/10/20 09:20:11;;;;;;;76.40;32.50;;;;;;;9.37;100.00;97838.74;110421;1272;22236;-77
2023/10/20 09:22:42;;;;;;;81.50;32.50;;;;;;;9.37;100.00;97834.08;110289;1275;22981;-77
2023/10/20 09:25:13;;;;;;;75.20;31.80;;;;;;;9.39;100.00;97830.52;110448;1275;22131;-77
2023/10/20 09:27:46;;;;;;;78.90;32.10;;;;;;;9.40;100.00;97829.98;110466;1275;22216;-77
2023/10/20 09:30:17;;;;;;;74.50;30.10;;;;;;;9.42;100.00;97830.66;110438;1275;22262;-77
2023/10/20 09:32:49;;;;;;;76.50;31.10;;;;;;;9.44;100.00;97825.42;110435;1272;22210;-77
2023/10/20 09:35:20;;;;;;;80.50;31.40;;;;;;;9.44;100.00;97828.45;110437;1270;22383;-77
2023/10/20 09:37:56;;;;;;;77.20;32.70;;;;;;;9.45;100.00;97826.17;110420;1275;22954;-77
2023/10/20 09:40:27;;;;;;;77.30;32.30;;;;;;;9.47;100.00;97827.09;110445;1275;22416;-77
2023/10/20 09:43:10;;;;;;;74.50;33.00;;;;;;;9.50;100.00;97832.97;110435;1275;22964;-77
2023/10/20 09:45:47;;;;;;;73.20;32.80;;;;;;;9.51;100.00;97829.52;110414;1275;23051;-77
2023/10/20 09:48:20;;;;;;;78.20;32.20;;;;;;;9.54;100.00;97836.10;110453;1275;22196;-77
2023/10/20 09:50:53;;;;;;;73.40;30.50;;;;;;;9.57;100.00;97829.73;110407;1275;22150;-77
2023/10/20 09:53:24;;;;;;;78.30;30.80;;;;;;;9.60;100.00;97822.65;110424;1272;22981;-77
2023/10/20 09:55:55;;;;;;;82.70;35.10;;;;;;;9.62;100.00;97826.63;110442;1275;22216;-77
2023/10/20 09:58:33;;;;;;;83.60;33.40;;;;;;;9.64;100.00;97834.48;110459;1264;22310;-77
2023/10/20 10:01:06;;;;;;;79.50;32.60;;;;;;;9.65;100.00;97826.05;110415;1272;22273;-77
2023/10/20 10:03:40;;;;;;;85.20;33.70;;;;;;;9.67;100.00;97828.30;110439;1275;22404;-77
2023/10/20 10:06:15;;;;;;;78.80;32.30;;;;;;;9.69;100.00;97816.27;110438;1275;22771;-77
2023/10/20 10:08:46;;;;;;;75.70;31.70;;;;;;;9.71;100.00;97812.58;110469;1275;22171;-77
2023/10/20 10:11:27;;;;;;;78.90;33.70;;;;;;;9.72;100.00;97804.40;110441;1275;22298;-77
2023/10/20 10:14:01;;;;;;;82.30;34.30;;;;;;;9.75;100.00;97802.59;110455;1275;22269;-77
2023/10/20 10:16:32;;;;;;;81.20;32.80;;;;;;;9.77;100.00;97803.47;110449;1275;22331;-77
2023/10/20 10:19:15;;;;;;;76.80;35.00;;;;;;;9.78;100.00;97794.73;110440;1275;22154;-77
2023/10/20 10:21:53;;;;;;;91.80;42.50;;;;;;;9.80;100.00;97788.94;110466;1271;22366;-77
2023/10/20 10:24:25;;;;;;;100.50;46.50;;;;;;;9.84;100.00;97784.60;110410;1275;22201;-77
2023/10/20 10:26:59;;;;;;;92.70;47.40;;;;;;;9.87;100.00;97783.13;110603;1275;22215;-77
2023/10/20 10:29:48;;;;;;;87.70;41.80;;;;;;;9.90;100.00;97788.64;110560;1275;22312;-77
2023/10/20 10:32:20;;;;;;;87.80;41.90;;;;;;;9.94;100.00;97790.25;110431;1275;22445;-77
2023/10/20 10:34:52;;;;;;;79.20;36.20;;;;;;;9.97;100.00;97794.81;110415;1272;22247;-77
2023/10/20 10:37:32;;;;;;;78.80;36.60;;;;;;;10.01;100.00;97795.20;110421;1272;22168;-77
2023/10/20 10:40:12;;;;;;;78.40;33.80;;;;;;;10.02;100.00;97789.39;110416;1275;22216;-77
2023/10/20 10:42:45;;;;;;;79.80;37.00;;;;;;;10.04;100.00;97791.20;110419;1275;22262;-78
2023/10/20 10:45:21;;;;;;;74.00;34.70;;;;;;;10.06;100.00;97786.55;110408;1275;22151;-77
2023/10/20 10:48:03;;;;;;;68.90;33.20;;;;;;;10.09;100.00;97783.59;110433;1275;23029;-77
2023/10/20 10:50:34;;;;;;;76.10;32.00;;;;;;;10.14;100.00;97781.57;110392;1275;22207;-77
2023/10/20 10:53:07;;;;;;;74.70;34.30;;;;;;;10.15;100.00;97783.71;110407;1275;22223;-77
2023/10/20 10:55:38;;;;;;;73.30;34.20;;;;;;;10.18;100.00;97787.02;110417;1275;22209;-77
2023/10/20 10:58:12;;;;;;;72.40;32.90;;;;;;;10.20;100.00;97789.86;110419;1272;22160;-77
2023/10/20 11:00:44;;;;;;;71.00;32.40;;;;;;;10.22;100.00;97787.75;110397;1275;22222;-77
2023/10/20 11:03:15;;;;;;;72.90;31.60;;;;;;;10.23;100.00;97786.23;110426;1275;22986;-77
2023/10/20 11:05:47;;;;;;;78.80;35.00;;;;;;;10.24;100.00;97784.95;110419;1275;22966;-77
2023/10/20 11:08:21;;;;;;;69.90;29.90;;;;;;;10.25;100.00;97776.68;110440;1272;23225;-77
2023/10/20 11:10:51;;;;;;;71.30;33.40;;;;;;;10.26;100.00;97772.19;110417;1275;22274;-77
2023/10/20 11:13:24;;;;;;;81.70;34.90;;;;;;;10.27;100.00;97763.91;110401;1275;22826;-77
2023/10/20 11:15:55;;;;;;;68.20;32.40;;;;;;;10.29;100.00;97762.41;110444;1275;22201;-77
2023/10/20 11:18:26;;;;;;;65.10;31.30;;;;;;;10.31;100.00;97754.57;110448;1275;22253;-77
2023/10/20 11:20:57;;;;;;;76.50;33.80;;;;;;;10.32;100.00;97748.71;110416;1275;22152;-77
2023/10/20 11:23:32;;;;;;;69.20;33.00;;;;;;;10.35;100.00;97744.85;110423;1275;22558;-77
2023/10/20 11:26:03;;;;;;;76.50;34.50;;;;;;;10.37;100.00;97737.20;110425;1275;22142;-77
2023/10/20 11:28:35;;;;;;;80.10;35.20;;;;;;;10.39;100.00;97732.09;110477;1275;22190;-78
2023/10/20 11:31:06;;;;;;;78.10;35.80;;;;;;;10.40;100.00;97723.05;110420;1272;22162;-78
2023/10/20 11:33:38;;;;;;;80.80;34.50;;;;;;;10.43;100.00;97727.50;110438;1275;22277;-78
2023/10/20 11:36:10;;;;;;;79.40;37.60;;;;;;;10.44;100.00;97727.96;110441;1275;22356;-77
2023/10/20 11:38:41;;;;;;;76.10;33.90;;;;;;;10.47;100.00;97726.14;110401;1275;22137;-78
2023/10/20 11:41:11;;;;;;;79.20;35.80;;;;;;;10.48;100.00;97726.42;110427;1275;22261;-78
2023/10/20 11:43:42;;;;;;;74.10;33.40;;;;;;;10.51;100.00;97719.87;110409;1275;22147;-79
2023/10/20 11:46:13;;;;;;;74.00;33.80;;;;;;;10.53;100.00;97725.36;110427;1275;22167;-81
2023/10/20 11:48:47;;;;;;;89.40;36.80;;;;;;;10.54;100.00;97725.95;110447;1275;22196;-81